createdAt,value
2019-01-13T00:02:02.944Z,14.30
2019-01-13T00:04:30.937Z,14.47
2019-01-13T00:06:59.646Z,13.57
2019-01-13T00:09:27.600Z,16.57
2019-01-13T00:11:57.340Z,15.17
2019-01-13T00:14:25.017Z,14.93
2019-01-13T00:16:52.784Z,13.67
2019-01-13T00:19:20.451Z,13.43
2019-01-13T00:21:48.366Z,13.10
2019-01-13T00:24:15.989Z,11.87
2019-01-13T00:26:43.667Z,14.00
2019-01-13T00:29:11.349Z,15.10
2019-01-13T00:31:38.974Z,13.10
2019-01-13T00:34:07.665Z,11.30
2019-01-13T00:36:35.361Z,11.97
2019-01-13T00:39:05.421Z,10.53
2019-01-13T00:41:33.918Z,10.50
2019-01-13T00:44:01.601Z,9.57
2019-01-13T00:46:29.491Z,8.47
2019-01-13T00:48:57.079Z,11.40
2019-01-13T00:51:24.715Z,9.83
2019-01-13T00:53:52.357Z,8.30
2019-01-13T00:56:19.969Z,7.80
2019-01-13T00:58:47.587Z,7.73
2019-01-13T01:01:15.213Z,6.93
2019-01-13T01:03:43.549Z,6.03
2019-01-13T01:06:11.236Z,6.77
2019-01-13T01:08:38.925Z,6.70
2019-01-13T01:11:06.627Z,5.63
2019-01-13T01:13:34.366Z,5.67
2019-01-13T01:16:02.139Z,4.90
2019-01-13T01:18:29.760Z,5.50
2019-01-13T01:20:57.398Z,5.30
2019-01-13T01:23:25.048Z,5.23
2019-01-13T01:25:53.672Z,5.17
2019-01-13T01:28:21.268Z,4.63
2019-01-13T01:30:49.061Z,4.87
2019-01-13T01:33:16.842Z,4.70
2019-01-13T01:35:44.472Z,4.50
2019-01-13T01:38:12.082Z,4.67
2019-01-13T01:40:40.066Z,4.77
2019-01-13T01:43:07.712Z,3.67
2019-01-13T01:45:35.429Z,4.47
2019-01-13T01:48:03.063Z,4.10
2019-01-13T01:50:30.700Z,4.63
2019-01-13T01:52:58.315Z,3.83
2019-01-13T01:55:25.908Z,3.63
2019-01-13T01:57:53.574Z,3.80
2019-01-13T02:00:22.748Z,3.00
2019-01-13T02:02:50.428Z,17.93
2019-01-13T02:05:18.084Z,16.33
2019-01-13T02:07:45.741Z,5.63
2019-01-13T02:10:15.533Z,4.73
2019-01-13T02:12:43.304Z,3.40
2019-01-13T02:15:17.761Z,2.60
2019-01-13T02:17:45.515Z,2.50
2019-01-13T02:20:16.608Z,2.20
2019-01-13T02:22:45.096Z,2.30
2019-01-13T02:25:14.452Z,2.37
2019-01-13T02:27:42.357Z,2.10
2019-01-13T02:30:12.778Z,1.87
2019-01-13T02:32:40.514Z,1.90
2019-01-13T02:35:08.276Z,1.90
2019-01-13T02:37:35.932Z,2.20
2019-01-13T02:40:05.007Z,2.10
2019-01-13T02:42:32.649Z,2.20
2019-01-13T02:45:00.306Z,1.97
2019-01-13T02:47:27.942Z,1.80
2019-01-13T02:49:55.620Z,1.93
2019-01-13T02:52:23.245Z,2.30
2019-01-13T02:54:50.933Z,2.37
2019-01-13T02:57:18.692Z,2.10
2019-01-13T02:59:46.412Z,2.43
2019-01-13T03:02:14.208Z,2.67
2019-01-13T03:04:41.885Z,2.40
2019-01-13T03:07:09.519Z,2.20
2019-01-13T03:09:37.190Z,2.60
2019-01-13T03:12:06.097Z,3.33
2019-01-13T03:14:33.770Z,2.47
2019-01-13T03:17:01.414Z,2.13
2019-01-13T03:19:29.074Z,2.30
2019-01-13T03:21:56.676Z,2.47
2019-01-13T03:24:24.329Z,2.40
2019-01-13T03:26:52.065Z,2.43
2019-01-13T03:29:19.900Z,2.40
2019-01-13T03:31:47.534Z,2.20
2019-01-13T03:34:15.272Z,2.83
2019-01-13T03:36:42.901Z,2.33
2019-01-13T03:39:10.573Z,2.30
2019-01-13T03:41:38.209Z,1.90
2019-01-13T03:44:05.825Z,2.10
2019-01-13T03:46:33.585Z,2.00
2019-01-13T03:49:01.153Z,1.87
2019-01-13T03:51:29.058Z,2.03
2019-01-13T03:53:56.660Z,2.23
2019-01-13T03:56:24.408Z,2.40
2019-01-13T03:58:52.072Z,2.47
2019-01-13T04:01:19.766Z,2.20
2019-01-13T04:03:47.428Z,2.30
2019-01-13T04:06:15.158Z,2.50
2019-01-13T04:08:42.801Z,2.00
2019-01-13T04:11:10.426Z,1.87
2019-01-13T04:13:38.071Z,1.80
2019-01-13T04:16:05.706Z,1.90
2019-01-13T04:18:33.359Z,1.30
2019-01-13T04:21:01.342Z,1.10
2019-01-13T04:23:28.959Z,1.23
2019-01-13T04:25:56.592Z,1.50
2019-01-13T04:28:24.201Z,1.43
2019-01-13T04:30:51.998Z,1.07
2019-01-13T04:33:19.747Z,1.20
2019-01-13T04:35:47.426Z,1.37
2019-01-13T04:38:15.205Z,1.23
2019-01-13T04:40:42.892Z,1.40
2019-01-13T04:43:10.517Z,1.17
2019-01-13T04:45:39.381Z,1.00
2019-01-13T04:48:06.997Z,1.17
2019-01-13T04:50:34.646Z,1.00
2019-01-13T04:53:02.289Z,1.00
2019-01-13T04:55:30.039Z,1.30
2019-01-13T04:57:57.657Z,2.10
2019-01-13T05:00:25.318Z,1.83
2019-01-13T05:02:52.934Z,1.90
2019-01-13T05:05:20.561Z,2.10
2019-01-13T05:07:48.275Z,2.20
2019-01-13T05:10:17.659Z,1.77
2019-01-13T05:12:45.439Z,2.53
2019-01-13T05:15:13.489Z,2.30
2019-01-13T05:17:41.135Z,2.00
2019-01-13T05:20:11.616Z,1.93
2019-01-13T05:22:39.249Z,1.97
2019-01-13T05:25:07.073Z,1.50
2019-01-13T05:27:34.708Z,1.90
2019-01-13T05:30:02.344Z,1.90
2019-01-13T05:32:29.967Z,1.80
2019-01-13T05:34:57.646Z,1.90
2019-01-13T05:37:25.246Z,2.00
2019-01-13T05:39:55.176Z,1.90
2019-01-13T05:42:22.841Z,1.80
2019-01-13T05:44:50.578Z,2.10
2019-01-13T05:47:18.235Z,1.97
2019-01-13T05:49:45.894Z,1.40
2019-01-13T05:52:13.591Z,1.60
2019-01-13T05:54:41.235Z,1.67
2019-01-13T05:57:08.998Z,1.57
2019-01-13T05:59:36.669Z,1.97
2019-01-13T06:02:04.817Z,3.07
2019-01-13T06:04:32.492Z,3.50
2019-01-13T06:07:00.185Z,3.90
2019-01-13T06:09:27.890Z,3.77
2019-01-13T06:11:55.494Z,3.37
2019-01-13T06:14:23.176Z,3.37
2019-01-13T06:16:50.860Z,2.50
2019-01-13T06:19:18.712Z,2.70
2019-01-13T06:21:46.458Z,2.00
2019-01-13T06:24:14.325Z,2.30
2019-01-13T06:26:42.036Z,2.10
2019-01-13T06:29:09.721Z,2.37
2019-01-13T06:31:37.326Z,3.57
2019-01-13T06:34:04.980Z,3.33
2019-01-13T06:36:32.723Z,2.60
2019-01-13T06:39:00.285Z,4.47
2019-01-13T06:41:30.852Z,6.10
2019-01-13T06:43:58.440Z,14.30
2019-01-13T06:46:26.082Z,5.30
2019-01-13T06:48:55.080Z,7.03
2019-01-13T06:51:22.749Z,7.23
2019-01-13T06:53:50.360Z,5.43
2019-01-13T06:56:18.068Z,4.00
2019-01-13T06:58:45.808Z,4.67
2019-01-13T07:01:13.512Z,10.10
2019-01-13T07:03:41.125Z,5.33
2019-01-13T07:06:08.798Z,4.60
2019-01-13T07:08:36.400Z,4.80
2019-01-13T07:11:06.252Z,4.47
2019-01-13T07:13:33.881Z,3.80
2019-01-13T07:16:01.488Z,4.63
2019-01-13T07:18:29.155Z,3.90
2019-01-13T07:20:56.809Z,4.17
2019-01-13T07:23:24.401Z,5.90
2019-01-13T07:25:52.106Z,8.87
2019-01-13T07:28:19.880Z,4.17
2019-01-13T07:30:47.541Z,3.70
2019-01-13T07:33:15.137Z,20.13
2019-01-13T07:35:42.837Z,18.47
2019-01-13T07:38:10.434Z,15.17
2019-01-13T07:40:38.073Z,3.70
2019-01-13T07:43:05.697Z,8.63
2019-01-13T07:45:33.305Z,5.17
2019-01-13T07:48:00.940Z,4.30
2019-01-13T07:50:29.569Z,2.80
2019-01-13T07:52:57.212Z,4.77
2019-01-13T07:55:24.972Z,3.10
2019-01-13T07:57:52.660Z,2.20
2019-01-13T08:00:31.212Z,10.90
2019-01-13T08:02:59.072Z,4.80
2019-01-13T08:05:26.683Z,5.10
2019-01-13T08:07:56.521Z,8.97
2019-01-13T08:10:24.181Z,6.70
2019-01-13T08:12:53.612Z,5.40
2019-01-13T08:15:21.348Z,8.63
2019-01-13T08:17:49.024Z,5.03
2019-01-13T08:20:22.112Z,6.30
2019-01-13T08:22:49.867Z,4.33
2019-01-13T08:25:17.589Z,5.07
2019-01-13T08:27:45.321Z,3.97
2019-01-13T08:30:15.213Z,4.90
2019-01-13T08:32:42.976Z,4.20
2019-01-13T08:35:10.695Z,8.07
2019-01-13T08:37:38.337Z,5.40
2019-01-13T08:40:07.906Z,4.70
2019-01-13T08:42:35.542Z,3.07
2019-01-13T08:45:06.704Z,3.50
2019-01-13T08:47:34.392Z,3.87
2019-01-13T08:50:02.223Z,3.10
2019-01-13T08:52:29.820Z,3.40
2019-01-13T08:54:57.437Z,6.43
2019-01-13T08:57:25.092Z,4.17
2019-01-13T08:59:52.784Z,5.10
2019-01-13T09:02:20.441Z,4.97
2019-01-13T09:04:48.228Z,5.90
2019-01-13T09:07:15.896Z,7.37
2019-01-13T09:09:43.490Z,5.87
2019-01-13T09:12:11.180Z,9.60
2019-01-13T09:14:38.861Z,6.73
2019-01-13T09:17:06.525Z,5.43
2019-01-13T09:19:34.226Z,16.50
2019-01-13T09:22:02.060Z,10.13
2019-01-13T09:24:29.668Z,12.70
2019-01-13T09:26:57.514Z,12.30
2019-01-13T09:29:25.063Z,12.00
2019-01-13T09:31:52.730Z,7.37
2019-01-13T09:34:20.664Z,5.97
2019-01-13T09:36:48.567Z,4.60
2019-01-13T09:39:16.288Z,3.00
2019-01-13T09:41:43.879Z,2.97
2019-01-13T09:44:11.536Z,3.17
2019-01-13T09:46:39.144Z,1.90
2019-01-13T09:49:06.872Z,2.33
2019-01-13T09:51:34.484Z,2.07
2019-01-13T09:54:02.111Z,2.67
2019-01-13T09:56:29.787Z,2.50
2019-01-13T09:58:57.404Z,2.53
2019-01-13T10:01:25.257Z,3.17
2019-01-13T10:03:52.924Z,2.30
2019-01-13T10:06:22.844Z,2.70
2019-01-13T10:08:50.628Z,2.60
2019-01-13T10:11:18.332Z,5.33
2019-01-13T10:13:45.952Z,4.63
2019-01-13T10:16:14.236Z,3.43
2019-01-13T10:18:41.863Z,3.10
2019-01-13T10:21:09.528Z,3.23
2019-01-13T10:23:37.144Z,2.80
2019-01-13T10:26:04.901Z,2.73
2019-01-13T10:28:32.532Z,2.87
2019-01-13T10:31:03.332Z,2.93
2019-01-13T10:33:29.680Z,3.27
2019-01-13T10:35:57.322Z,2.97
2019-01-13T10:38:46.793Z,3.30
2019-01-13T10:41:02.136Z,5.03
2019-01-13T10:43:31.181Z,7.33
2019-01-13T10:45:58.753Z,6.63
2019-01-13T10:48:26.344Z,6.00
2019-01-13T10:50:54.369Z,5.10
2019-01-13T10:53:21.972Z,5.00
2019-01-13T10:55:49.633Z,4.57
2019-01-13T10:58:17.354Z,4.97
2019-01-13T11:00:44.976Z,6.83
2019-01-13T11:03:12.736Z,8.90
2019-01-13T11:05:40.412Z,8.50
2019-01-13T11:08:11.825Z,8.33
2019-01-13T11:10:37.649Z,7.40
2019-01-13T11:13:05.265Z,8.17
2019-01-13T11:15:32.895Z,8.07
2019-01-13T11:18:00.497Z,8.40
2019-01-13T11:20:33.186Z,7.47
2019-01-13T11:23:01.137Z,7.43
2019-01-13T11:25:28.776Z,7.30
2019-01-13T11:27:56.444Z,7.03
2019-01-13T11:30:24.637Z,7.80
2019-01-13T11:32:52.523Z,9.73
2019-01-13T11:35:20.402Z,12.83
2019-01-13T11:37:48.444Z,11.30
2019-01-13T11:40:18.629Z,10.27
2019-01-13T11:42:46.465Z,11.90
2019-01-13T11:45:14.105Z,9.40
2019-01-13T11:47:41.984Z,9.77
2019-01-13T11:50:12.211Z,9.67
2019-01-13T11:52:39.865Z,8.70
2019-01-13T11:55:08.847Z,7.10
2019-01-13T11:57:36.444Z,6.30
2019-01-13T12:00:07.563Z,5.63
2019-01-13T12:02:35.907Z,5.17
2019-01-13T12:05:05.193Z,4.03
2019-01-13T12:07:33.419Z,4.07
2019-01-13T12:10:01.493Z,4.50
2019-01-13T12:12:29.064Z,3.90
2019-01-13T12:14:56.682Z,2.70
2019-01-13T12:17:24.394Z,2.90
2019-01-13T12:19:52.366Z,2.90
2019-01-13T12:22:22.293Z,2.90
2019-01-13T12:24:50.136Z,2.93
2019-01-13T12:27:17.751Z,2.77
2019-01-13T12:29:45.376Z,3.13
2019-01-13T12:32:13.032Z,3.37
2019-01-13T12:34:40.657Z,4.10
2019-01-13T12:37:08.545Z,5.00
2019-01-13T12:39:36.184Z,3.40
2019-01-13T12:42:03.947Z,3.60
2019-01-13T12:44:31.664Z,3.47
2019-01-13T12:46:59.249Z,3.53
2019-01-13T12:49:26.884Z,3.67
2019-01-13T12:51:54.549Z,3.33
2019-01-13T12:54:22.382Z,3.60
2019-01-13T12:56:50.057Z,3.27
2019-01-13T12:59:17.736Z,3.50
2019-01-13T13:01:45.352Z,3.03
2019-01-13T13:04:13.033Z,2.90
2019-01-13T13:06:40.660Z,2.43
2019-01-13T13:09:09.028Z,2.60
2019-01-13T13:11:36.696Z,2.20
2019-01-13T13:14:04.320Z,2.40
2019-01-13T13:16:32.298Z,2.73
2019-01-13T13:18:59.961Z,2.70
2019-01-13T13:21:27.612Z,2.63
2019-01-13T13:23:55.264Z,3.10
2019-01-13T13:26:22.873Z,2.70
2019-01-13T13:28:50.723Z,3.03
2019-01-13T13:31:18.334Z,3.00
2019-01-13T13:33:45.961Z,3.50
2019-01-13T13:36:13.676Z,2.77
2019-01-13T13:38:41.286Z,3.37
2019-01-13T13:41:08.946Z,3.83
2019-01-13T13:43:35.528Z,4.30
2019-01-13T13:46:04.055Z,4.33
2019-01-13T13:48:31.704Z,2.77
2019-01-13T13:50:59.390Z,2.90
2019-01-13T13:53:27.092Z,2.30
2019-01-13T13:55:55.188Z,2.17
2019-01-13T13:58:23.097Z,2.53
2019-01-13T14:00:50.918Z,2.50
2019-01-13T14:03:18.608Z,3.03
2019-01-13T14:05:46.232Z,9.73
2019-01-13T14:08:16.950Z,9.03
2019-01-13T14:10:44.192Z,17.93
2019-01-13T14:13:11.919Z,11.57
2019-01-13T14:15:39.572Z,6.73
2019-01-13T14:18:07.265Z,8.00
2019-01-13T14:20:34.961Z,8.93
2019-01-13T14:23:02.797Z,6.97
2019-01-13T14:25:30.524Z,9.10
2019-01-13T14:27:58.182Z,6.03
2019-01-13T14:30:26.332Z,6.20
2019-01-13T14:32:54.214Z,5.30
2019-01-13T14:35:22.480Z,5.07
2019-01-13T14:37:50.320Z,4.67
2019-01-13T14:40:20.478Z,6.30
2019-01-13T14:42:48.173Z,9.07
2019-01-13T14:45:17.602Z,8.80
2019-01-13T14:47:45.604Z,9.47
2019-01-13T14:50:18.094Z,7.23
2019-01-13T14:52:46.974Z,4.87
2019-01-13T14:55:14.774Z,5.33
2019-01-13T14:57:42.404Z,4.83
2019-01-13T15:00:13.977Z,4.13
2019-01-13T15:02:41.977Z,6.57
2019-01-13T15:05:10.997Z,4.07
2019-01-13T15:07:38.702Z,3.40
2019-01-13T15:10:07.418Z,3.40
2019-01-13T15:12:35.091Z,3.73
2019-01-13T15:15:05.235Z,4.17
2019-01-13T15:17:33.569Z,15.80
2019-01-13T15:20:01.168Z,65.23
2019-01-13T15:22:28.848Z,8.97
2019-01-13T15:24:56.587Z,29.43
2019-01-13T15:27:24.200Z,49.90
2019-01-13T15:29:51.876Z,28.10
2019-01-13T15:32:19.528Z,6.73
2019-01-13T15:34:47.169Z,6.43
2019-01-13T15:37:14.818Z,3.60
2019-01-13T15:39:42.500Z,3.00
2019-01-13T15:42:10.190Z,2.77
2019-01-13T15:44:40.012Z,3.00
2019-01-13T15:47:07.700Z,1.50
2019-01-13T15:49:35.360Z,1.80
2019-01-13T15:52:03.008Z,2.20
2019-01-13T15:54:30.699Z,2.83
2019-01-13T15:56:59.138Z,3.20
2019-01-13T15:59:26.798Z,2.23
2019-01-13T16:01:54.521Z,3.20
2019-01-13T16:04:22.383Z,2.63
2019-01-13T16:06:49.968Z,2.93
2019-01-13T16:09:17.652Z,2.10
2019-01-13T16:11:45.252Z,4.40
2019-01-13T16:14:13.014Z,5.60
2019-01-13T16:16:40.685Z,3.20
2019-01-13T16:19:08.292Z,4.30
2019-01-13T16:21:36.024Z,5.37
2019-01-13T16:24:03.908Z,2.10
2019-01-13T16:26:31.662Z,1.83
2019-01-13T16:28:59.322Z,1.30
2019-01-13T16:31:27.086Z,1.83
2019-01-13T16:33:54.742Z,1.30
2019-01-13T16:36:22.380Z,1.53
2019-01-13T16:38:50.829Z,1.53
2019-01-13T16:41:18.396Z,1.40
2019-01-13T16:43:48.484Z,1.60
2019-01-13T16:46:16.132Z,1.50
2019-01-13T16:48:43.853Z,1.50
2019-01-13T16:51:11.535Z,2.20
2019-01-13T16:53:39.167Z,1.40
2019-01-13T16:56:06.797Z,1.90
2019-01-13T16:58:37.647Z,2.07
2019-01-13T17:01:05.308Z,1.93
2019-01-13T17:03:32.888Z,1.77
2019-01-13T17:06:00.620Z,1.53
2019-01-13T17:08:28.216Z,1.70
2019-01-13T17:10:56.014Z,1.80
2019-01-13T17:13:23.705Z,1.20
2019-01-13T17:15:51.336Z,1.20
2019-01-13T17:18:18.981Z,1.40
2019-01-13T17:20:46.698Z,1.87
2019-01-13T17:23:14.742Z,1.80
2019-01-13T17:25:42.348Z,3.87
2019-01-13T17:28:09.960Z,1.83
2019-01-13T17:30:37.644Z,1.80
2019-01-13T17:33:05.549Z,1.17
2019-01-13T17:35:33.327Z,0.90
2019-01-13T17:38:01.062Z,3.00
2019-01-13T17:40:29.236Z,2.80
2019-01-13T17:42:56.883Z,1.30
2019-01-13T17:45:26.831Z,1.07
2019-01-13T17:47:54.556Z,1.60
2019-01-13T17:50:23.525Z,1.50
2019-01-13T17:52:51.176Z,1.47
2019-01-13T17:55:20.541Z,1.40
2019-01-13T17:57:48.528Z,1.60
2019-01-13T18:00:24.492Z,1.97
2019-01-13T18:02:52.256Z,1.80
2019-01-13T18:05:19.924Z,1.80
2019-01-13T18:07:47.540Z,1.60
2019-01-13T18:10:15.213Z,0.83
2019-01-13T18:12:42.876Z,1.53
2019-01-13T18:15:10.736Z,3.10
2019-01-13T18:17:38.393Z,3.53
2019-01-13T18:20:10.312Z,2.10
2019-01-13T18:22:37.962Z,1.80
2019-01-13T18:25:06.006Z,2.50
2019-01-13T18:27:33.620Z,1.90
2019-01-13T18:30:01.325Z,2.03
2019-01-13T18:32:29.029Z,2.50
2019-01-13T18:34:56.593Z,2.47
2019-01-13T18:37:25.458Z,2.73
2019-01-13T18:39:53.152Z,2.97
2019-01-13T18:42:20.761Z,2.77
2019-01-13T18:44:48.368Z,3.70
2019-01-13T18:47:16.029Z,4.70
2019-01-13T18:49:43.606Z,5.23
2019-01-13T18:52:11.251Z,6.37
2019-01-13T18:54:39.494Z,6.07
2019-01-13T18:57:07.137Z,6.33
2019-01-13T18:59:34.813Z,6.40
2019-01-13T19:02:02.466Z,7.27
2019-01-13T19:04:30.084Z,8.10
2019-01-13T19:06:57.815Z,6.57
2019-01-13T19:09:25.495Z,6.50
2019-01-13T19:11:53.144Z,5.47
2019-01-13T19:14:35.734Z,6.33
2019-01-13T19:17:11.209Z,6.53
2019-01-13T19:19:46.101Z,5.57
2019-01-13T19:22:13.937Z,6.47
2019-01-13T19:24:41.592Z,7.40
2019-01-13T19:27:09.174Z,7.83
2019-01-13T19:29:36.780Z,7.67
2019-01-13T19:32:04.388Z,6.90
2019-01-13T19:34:32.009Z,7.03
2019-01-13T19:37:01.779Z,6.87
2019-01-13T19:39:29.449Z,7.03
2019-01-13T19:41:57.222Z,7.20
2019-01-13T19:44:24.962Z,6.73
2019-01-13T19:46:52.673Z,6.70
2019-01-13T19:49:20.584Z,24.17
2019-01-13T19:51:48.644Z,7.30
2019-01-13T19:54:16.318Z,10.60
2019-01-13T19:56:43.960Z,12.60
2019-01-13T19:59:11.598Z,11.53
2019-01-13T20:01:39.262Z,10.10
2019-01-13T20:04:06.881Z,5.77
2019-01-13T20:06:34.509Z,8.73
2019-01-13T20:09:07.276Z,17.10
2019-01-13T20:11:34.989Z,4.97
2019-01-13T20:14:02.625Z,4.03
2019-01-13T20:16:33.074Z,3.83
2019-01-13T20:19:00.724Z,3.60
2019-01-13T20:21:28.470Z,3.60
2019-01-13T20:23:56.088Z,4.07
2019-01-13T20:26:23.760Z,4.37
2019-01-13T20:28:51.414Z,3.80
2019-01-13T20:31:18.988Z,4.03
2019-01-13T20:33:46.586Z,4.50
2019-01-13T20:36:14.345Z,4.40
2019-01-13T20:38:43.119Z,5.70
2019-01-13T20:41:10.745Z,8.00
2019-01-13T20:43:38.409Z,6.37
2019-01-13T20:46:06.020Z,5.00
2019-01-13T20:48:33.657Z,6.63
2019-01-13T20:51:01.309Z,6.40
2019-01-13T20:53:28.928Z,4.80
2019-01-13T20:55:56.616Z,3.70
2019-01-13T20:58:24.318Z,3.30
2019-01-13T21:00:51.992Z,2.60
2019-01-13T21:03:19.621Z,2.50
2019-01-13T21:05:47.338Z,1.50
2019-01-13T21:08:14.942Z,1.53
2019-01-13T21:10:42.577Z,1.60
2019-01-13T21:13:10.248Z,1.70
2019-01-13T21:15:38.001Z,1.90
2019-01-13T21:18:05.615Z,2.17
2019-01-13T21:20:33.300Z,2.10
2019-01-13T21:23:00.892Z,1.40
2019-01-13T21:25:28.617Z,1.70
2019-01-13T21:27:58.823Z,1.70
2019-01-13T21:30:27.234Z,1.20
2019-01-13T21:32:55.048Z,0.70
2019-01-13T21:35:24.887Z,0.60
2019-01-13T21:37:52.547Z,0.60
2019-01-13T21:40:20.334Z,0.60
2019-01-13T21:42:47.956Z,0.60
2019-01-13T21:45:17.308Z,0.90
2019-01-13T21:47:44.907Z,0.73
2019-01-13T21:50:14.520Z,0.90
2019-01-13T21:52:42.378Z,0.87
2019-01-13T21:55:10.971Z,1.03
2019-01-13T21:57:38.568Z,0.90
2019-01-13T22:00:10.260Z,1.00
2019-01-13T22:02:37.842Z,1.17
2019-01-13T22:05:06.750Z,1.00
2019-01-13T22:07:34.394Z,0.80
2019-01-13T22:10:02.195Z,0.80
2019-01-13T22:12:29.901Z,1.10
2019-01-13T22:14:57.590Z,1.50
2019-01-13T22:17:25.256Z,1.00
2019-01-13T22:19:52.937Z,1.00
2019-01-13T22:22:20.600Z,0.80
2019-01-13T22:24:48.273Z,1.23
2019-01-13T22:27:15.937Z,1.10
2019-01-13T22:29:43.590Z,1.30
2019-01-13T22:32:11.242Z,1.27
2019-01-13T22:34:38.948Z,1.30
2019-01-13T22:37:06.641Z,1.23
2019-01-13T22:39:34.305Z,0.90
2019-01-13T22:42:02.019Z,0.97
2019-01-13T22:44:29.649Z,1.10
2019-01-13T22:46:57.340Z,1.20
2019-01-13T22:49:25.004Z,1.10
2019-01-13T22:51:55.060Z,1.00
2019-01-13T22:54:22.682Z,0.80
2019-01-13T22:56:50.336Z,0.60
2019-01-13T22:59:17.926Z,1.00
2019-01-13T23:01:46.405Z,0.90
2019-01-13T23:04:17.824Z,0.70
2019-01-13T23:06:45.419Z,0.60
2019-01-13T23:09:14.383Z,0.73
2019-01-13T23:11:42.001Z,0.70
2019-01-13T23:14:09.853Z,0.70
2019-01-13T23:16:37.592Z,0.67
2019-01-13T23:19:05.319Z,0.73
2019-01-13T23:21:33.024Z,0.80
2019-01-13T23:24:00.660Z,0.67
2019-01-13T23:26:28.434Z,0.80
2019-01-13T23:28:56.364Z,0.83
2019-01-13T23:31:26.201Z,0.70
2019-01-13T23:33:54.204Z,1.00
2019-01-13T23:36:22.202Z,0.70
2019-01-13T23:38:49.812Z,0.70
2019-01-13T23:41:18.836Z,0.70
2019-01-13T23:43:46.666Z,0.73
2019-01-13T23:46:14.383Z,0.90
2019-01-13T23:48:42.025Z,0.70
2019-01-13T23:51:09.752Z,0.73
2019-01-13T23:53:37.580Z,0.77
2019-01-13T23:56:05.183Z,0.87
2019-01-13T23:58:33.009Z,0.90
